createdAt,value
2022-09-14T00:00:03.746Z,20.69
2022-09-14T00:01:24.195Z,20.68
2022-09-14T00:02:03.954Z,20.66
2022-09-14T00:03:04.042Z,20.69
2022-09-14T00:04:03.979Z,20.68
2022-09-14T00:05:04.085Z,20.71
2022-09-14T00:06:04.054Z,20.69
2022-09-14T00:07:04.136Z,20.77
2022-09-14T00:08:04.168Z,20.81
2022-09-14T00:09:04.237Z,20.79
2022-09-14T00:10:04.290Z,20.80
2022-09-14T00:11:04.314Z,20.80
2022-09-14T00:12:04.394Z,20.79
2022-09-14T00:13:04.422Z,20.79
2022-09-14T00:14:04.467Z,20.68
2022-09-14T00:15:04.550Z,20.66
2022-09-14T00:16:04.572Z,20.62
2022-09-14T00:17:04.714Z,20.69
2022-09-14T00:18:04.674Z,20.69
2022-09-14T00:19:04.729Z,20.69
2022-09-14T00:20:04.807Z,20.72
2022-09-14T00:21:04.848Z,20.66
2022-09-14T00:22:04.880Z,20.76
2022-09-14T00:23:04.934Z,20.77
2022-09-14T00:24:05.762Z,20.90
2022-09-14T00:25:05.093Z,20.77
2022-09-14T00:26:06.025Z,20.90
2022-09-14T00:27:11.816Z,20.89
2022-09-14T00:28:05.194Z,20.91
2022-09-14T00:29:05.272Z,20.96
2022-09-14T00:30:13.299Z,20.99
2022-09-14T00:31:05.342Z,21.06
2022-09-14T00:32:05.439Z,21.05
2022-09-14T00:33:09.523Z,21.05
2022-09-14T00:34:05.524Z,21.08
2022-09-14T00:35:05.564Z,21.13
2022-09-14T00:36:05.774Z,21.13
2022-09-14T00:37:05.665Z,21.20
2022-09-14T00:38:07.295Z,21.14
2022-09-14T00:39:05.756Z,21.13
2022-09-14T00:40:06.360Z,21.21
2022-09-14T00:41:05.859Z,21.21
2022-09-14T00:42:05.928Z,21.19
2022-09-14T00:43:05.956Z,21.17
2022-09-14T00:44:06.774Z,21.20
2022-09-14T00:45:06.075Z,21.19
2022-09-14T00:46:06.149Z,21.13
2022-09-14T00:47:06.233Z,21.17
2022-09-14T00:48:06.222Z,21.09
2022-09-14T00:49:06.266Z,21.09
2022-09-14T00:50:06.318Z,21.06
2022-09-14T00:51:06.367Z,21.05
2022-09-14T00:52:06.448Z,21.09
2022-09-14T00:53:06.481Z,21.06
2022-09-14T00:54:06.527Z,21.05
2022-09-14T00:55:06.602Z,21.05
2022-09-14T00:56:06.665Z,21.08
2022-09-14T00:57:06.679Z,21.04
2022-09-14T00:58:06.730Z,21.11
2022-09-14T00:59:06.785Z,21.17
2022-09-14T01:00:06.833Z,21.17
2022-09-14T01:01:06.930Z,21.17
2022-09-14T01:02:07.037Z,21.13
2022-09-14T01:03:07.011Z,21.13
2022-09-14T01:04:07.041Z,21.09
2022-09-14T01:05:07.094Z,21.16
2022-09-14T01:06:07.143Z,21.08
2022-09-14T01:07:07.193Z,21.13
2022-09-14T01:08:07.264Z,21.09
2022-09-14T01:09:07.294Z,21.06
2022-09-14T01:10:07.349Z,21.08
2022-09-14T01:11:07.407Z,20.99
2022-09-14T01:12:07.498Z,20.96
2022-09-14T01:13:07.502Z,21.01
2022-09-14T01:14:07.550Z,20.91
2022-09-14T01:15:07.636Z,20.98
2022-09-14T01:16:07.722Z,20.96
2022-09-14T01:17:07.737Z,20.84
2022-09-14T01:18:07.763Z,20.90
2022-09-14T01:19:07.811Z,20.91
2022-09-14T01:20:07.860Z,20.83
2022-09-14T01:21:07.913Z,20.83
2022-09-14T01:22:07.998Z,20.86
2022-09-14T01:23:08.079Z,20.86
2022-09-14T01:24:08.069Z,20.91
2022-09-14T01:25:08.122Z,20.84
2022-09-14T01:26:08.171Z,20.93
2022-09-14T01:27:08.224Z,20.87
2022-09-14T01:28:08.299Z,20.93
2022-09-14T01:29:08.345Z,20.95
2022-09-14T01:30:08.378Z,20.87
2022-09-14T01:31:08.452Z,20.80
2022-09-14T01:32:08.502Z,20.87
2022-09-14T01:33:08.533Z,20.83
2022-09-14T01:34:08.582Z,20.91
2022-09-14T01:35:08.651Z,20.89
2022-09-14T01:36:08.713Z,20.87
2022-09-14T01:37:08.739Z,20.86
2022-09-14T01:38:08.791Z,20.87
2022-09-14T01:39:08.841Z,20.77
2022-09-14T01:40:08.961Z,20.83
2022-09-14T01:41:08.973Z,20.80
2022-09-14T01:42:08.992Z,20.77
2022-09-14T01:43:09.054Z,20.79
2022-09-14T01:44:09.103Z,20.69
2022-09-14T01:45:09.155Z,20.69
2022-09-14T01:46:09.320Z,20.80
2022-09-14T01:47:09.254Z,20.69
2022-09-14T01:48:09.306Z,20.81
2022-09-14T01:49:09.379Z,20.69
2022-09-14T01:50:09.406Z,20.61
2022-09-14T01:51:09.460Z,20.65
2022-09-14T01:52:09.511Z,20.69
2022-09-14T01:53:09.562Z,20.65
2022-09-14T01:54:09.638Z,20.71
2022-09-14T01:55:09.666Z,20.64
2022-09-14T01:56:09.742Z,20.68
2022-09-14T01:57:09.769Z,20.68
2022-09-14T01:58:09.847Z,20.71
2022-09-14T01:59:09.873Z,20.69
2022-09-14T02:00:09.948Z,20.69
2022-09-14T02:01:10.053Z,20.69
2022-09-14T02:02:10.108Z,20.69
2022-09-14T02:03:10.075Z,20.66
2022-09-14T02:04:10.127Z,20.74
2022-09-14T02:05:10.180Z,20.69
2022-09-14T02:06:10.259Z,20.64
2022-09-14T02:07:10.285Z,20.64
2022-09-14T02:08:10.336Z,20.69
2022-09-14T02:09:10.389Z,20.66
2022-09-14T02:10:10.440Z,20.81
2022-09-14T02:11:10.511Z,20.77
2022-09-14T02:12:10.544Z,20.81
2022-09-14T02:13:10.590Z,20.81
2022-09-14T02:14:10.669Z,20.95
2022-09-14T02:15:10.696Z,20.91
2022-09-14T02:16:10.833Z,20.96
2022-09-14T02:17:10.798Z,20.80
2022-09-14T02:18:10.850Z,20.93
2022-09-14T02:19:10.934Z,20.89
2022-09-14T02:20:10.957Z,20.90
2022-09-14T02:21:11.005Z,20.90
2022-09-14T02:22:11.057Z,20.79
2022-09-14T02:23:11.103Z,20.87
2022-09-14T02:24:11.185Z,20.89
2022-09-14T02:25:11.211Z,20.83
2022-09-14T02:26:11.260Z,20.84
2022-09-14T02:27:11.322Z,20.76
2022-09-14T02:28:11.399Z,20.72
2022-09-14T02:29:11.432Z,20.80
2022-09-14T02:30:11.482Z,20.77
2022-09-14T02:31:11.574Z,20.80
2022-09-14T02:32:11.600Z,20.81
2022-09-14T02:33:11.626Z,20.81
2022-09-14T02:34:11.677Z,20.79
2022-09-14T02:35:11.727Z,20.77
2022-09-14T02:36:11.778Z,20.66
2022-09-14T02:37:11.861Z,20.76
2022-09-14T02:38:11.881Z,20.66
2022-09-14T02:39:11.933Z,20.76
2022-09-14T02:40:12.087Z,20.77
2022-09-14T02:41:12.035Z,20.77
2022-09-14T02:42:12.118Z,20.65
2022-09-14T02:43:12.139Z,20.66
2022-09-14T02:44:12.185Z,20.62
2022-09-14T02:45:12.261Z,20.65
2022-09-14T02:46:12.328Z,20.74
2022-09-14T02:47:12.364Z,20.64
2022-09-14T02:48:12.447Z,20.66
2022-09-14T02:49:12.448Z,20.68
2022-09-14T02:50:12.496Z,20.69
2022-09-14T02:51:12.546Z,20.80
2022-09-14T02:52:12.601Z,20.77
2022-09-14T02:53:12.686Z,20.72
2022-09-14T02:54:12.701Z,20.79
2022-09-14T02:55:12.757Z,20.68
2022-09-14T02:56:12.804Z,20.69
2022-09-14T02:57:12.861Z,20.66
2022-09-14T02:58:12.932Z,20.69
2022-09-14T02:59:12.958Z,20.65
2022-09-14T03:00:13.041Z,20.61
2022-09-14T03:01:13.154Z,20.62
2022-09-14T03:02:13.189Z,20.64
2022-09-14T03:03:13.171Z,20.56
2022-09-14T03:04:13.221Z,20.65
2022-09-14T03:05:13.300Z,20.65
2022-09-14T03:06:13.319Z,20.66
2022-09-14T03:07:13.369Z,20.69
2022-09-14T03:08:13.431Z,20.64
2022-09-14T03:09:13.473Z,20.68
2022-09-14T03:10:13.552Z,20.68
2022-09-14T03:11:13.608Z,20.68
2022-09-14T03:12:13.632Z,20.68
2022-09-14T03:13:13.681Z,20.64
2022-09-14T03:14:13.733Z,20.69
2022-09-14T03:15:13.784Z,20.74
2022-09-14T03:16:13.908Z,20.71
2022-09-14T03:17:13.881Z,20.66
2022-09-14T03:18:14.693Z,20.61
2022-09-14T03:19:13.988Z,20.68
2022-09-14T03:20:14.039Z,20.62
2022-09-14T03:21:14.118Z,20.53
2022-09-14T03:22:14.140Z,20.56
2022-09-14T03:23:14.195Z,20.49
2022-09-14T03:24:14.245Z,20.50
2022-09-14T03:25:14.295Z,20.49
2022-09-14T03:26:14.373Z,20.34
2022-09-14T03:27:14.410Z,20.30
2022-09-14T03:28:14.454Z,20.27
2022-09-14T03:29:14.506Z,20.12
2022-09-14T03:30:14.552Z,20.16
2022-09-14T03:31:14.700Z,20.18
2022-09-14T03:32:14.659Z,20.12
2022-09-14T03:33:14.712Z,20.13
2022-09-14T03:34:14.768Z,20.20
2022-09-14T03:35:14.814Z,20.21
2022-09-14T03:36:14.930Z,20.15
2022-09-14T03:37:14.923Z,20.10
2022-09-14T03:38:14.967Z,20.12
2022-09-14T03:39:15.026Z,20.06
2022-09-14T03:40:19.287Z,20.13
2022-09-14T03:41:15.158Z,20.12
2022-09-14T03:42:15.182Z,20.09
2022-09-14T03:43:15.222Z,20.09
2022-09-14T03:44:15.285Z,20.08
2022-09-14T03:45:15.356Z,20.08
2022-09-14T03:46:15.416Z,20.08
2022-09-14T03:47:15.432Z,20.06
2022-09-14T03:48:15.486Z,20.05
2022-09-14T03:49:15.529Z,19.91
2022-09-14T03:50:15.629Z,20.06
2022-09-14T03:51:15.669Z,19.98
2022-09-14T03:52:15.685Z,20.05
2022-09-14T03:53:15.759Z,20.06
2022-09-14T03:54:15.792Z,20.03
2022-09-14T03:55:15.846Z,20.02
2022-09-14T03:56:15.901Z,20.02
2022-09-14T03:57:15.938Z,20.02
2022-09-14T03:58:16.013Z,19.97
2022-09-14T03:59:16.085Z,20.06
2022-09-14T04:00:16.095Z,20.00
2022-09-14T04:01:16.259Z,20.02
2022-09-14T04:02:16.322Z,20.05
2022-09-14T04:03:16.292Z,20.00
2022-09-14T04:04:16.331Z,19.94
2022-09-14T04:05:21.103Z,20.03
2022-09-14T04:06:16.575Z,19.97
2022-09-14T04:07:31.346Z,20.00
2022-09-14T04:08:16.508Z,19.97
2022-09-14T04:09:16.603Z,19.94
2022-09-14T04:10:16.606Z,19.87
2022-09-14T04:11:16.663Z,19.80
2022-09-14T04:12:16.710Z,19.72
2022-09-14T04:13:19.886Z,19.76
2022-09-14T04:14:16.809Z,19.80
2022-09-14T04:15:16.858Z,19.76
2022-09-14T04:16:17.001Z,19.79
2022-09-14T04:17:16.962Z,19.73
2022-09-14T04:18:17.044Z,19.76
2022-09-14T04:19:17.071Z,19.79
2022-09-14T04:20:17.116Z,19.72
2022-09-14T04:21:17.167Z,19.76
2022-09-14T04:22:17.218Z,19.69
2022-09-14T04:23:17.295Z,19.63
2022-09-14T04:24:17.591Z,19.66
2022-09-14T04:25:17.369Z,19.69
2022-09-14T04:26:17.418Z,19.68
2022-09-14T04:27:17.480Z,19.60
2022-09-14T04:28:20.440Z,19.78
2022-09-14T04:29:17.581Z,19.68
2022-09-14T04:30:17.651Z,19.75
2022-09-14T04:31:17.726Z,19.63
2022-09-14T04:32:17.730Z,19.76
2022-09-14T04:33:17.782Z,19.66
2022-09-14T04:34:17.826Z,19.57
2022-09-14T04:35:17.908Z,19.61
2022-09-14T04:36:17.936Z,19.69
2022-09-14T04:37:17.986Z,19.76
2022-09-14T04:38:18.033Z,19.65
2022-09-14T04:39:18.087Z,19.63
2022-09-14T04:40:18.213Z,19.65
2022-09-14T04:41:18.185Z,19.60
2022-09-14T04:42:18.263Z,19.69
2022-09-14T04:43:18.286Z,19.65
2022-09-14T04:44:18.341Z,19.63
2022-09-14T04:45:33.366Z,19.70
2022-09-14T04:46:18.514Z,19.57
2022-09-14T04:47:18.529Z,19.70
2022-09-14T04:48:18.544Z,19.68
2022-09-14T04:49:18.602Z,19.66
2022-09-14T04:50:18.645Z,19.66
2022-09-14T04:51:18.729Z,19.65
2022-09-14T04:52:18.787Z,19.75
2022-09-14T04:53:18.800Z,19.70
2022-09-14T04:54:18.847Z,19.73
2022-09-14T04:55:18.950Z,19.68
2022-09-14T04:56:18.954Z,19.61
2022-09-14T04:57:19.031Z,19.61
2022-09-14T04:58:19.053Z,19.58
2022-09-14T04:59:19.107Z,19.68
2022-09-14T05:00:19.151Z,19.63
2022-09-14T05:01:19.331Z,19.61
2022-09-14T05:02:43.617Z,19.65
2022-09-14T05:03:19.971Z,19.68
2022-09-14T05:04:23.756Z,19.61
2022-09-14T05:05:19.410Z,19.61
2022-09-14T05:06:19.457Z,19.54
2022-09-14T05:07:19.519Z,19.50
2022-09-14T05:08:19.591Z,19.57
2022-09-14T05:09:19.637Z,19.58
2022-09-14T05:10:19.666Z,19.46
2022-09-14T05:11:19.735Z,19.54
2022-09-14T05:12:19.777Z,19.55
2022-09-14T05:13:19.821Z,19.61
2022-09-14T05:14:19.906Z,19.57
2022-09-14T05:15:19.922Z,19.63
2022-09-14T05:16:20.045Z,19.65
2022-09-14T05:17:20.063Z,19.66
2022-09-14T05:18:20.124Z,19.70
2022-09-14T05:19:20.135Z,19.65
2022-09-14T05:20:20.184Z,19.66
2022-09-14T05:21:20.227Z,19.70
2022-09-14T05:22:20.304Z,19.68
2022-09-14T05:23:20.329Z,19.66
2022-09-14T05:24:20.407Z,19.57
2022-09-14T05:25:20.428Z,19.68
2022-09-14T05:26:20.478Z,19.76
2022-09-14T05:27:20.535Z,19.79
2022-09-14T05:28:20.580Z,19.68
2022-09-14T05:29:20.668Z,19.68
2022-09-14T05:30:20.709Z,19.70
2022-09-14T05:31:20.777Z,19.80
2022-09-14T05:32:20.786Z,19.79
2022-09-14T05:33:20.850Z,19.79
2022-09-14T05:34:20.889Z,19.87
2022-09-14T05:35:21.001Z,19.86
2022-09-14T05:36:21.005Z,19.84
2022-09-14T05:37:21.037Z,19.98
2022-09-14T05:38:21.095Z,19.93
2022-09-14T05:39:23.332Z,19.95
2022-09-14T05:40:21.275Z,19.95
2022-09-14T05:41:21.245Z,19.91
2022-09-14T05:42:21.306Z,19.97
2022-09-14T05:43:21.350Z,19.97
2022-09-14T05:44:21.477Z,19.97
2022-09-14T05:45:21.569Z,20.00
2022-09-14T05:46:21.567Z,20.06
2022-09-14T05:47:21.601Z,20.09
2022-09-14T05:48:21.657Z,20.06
2022-09-14T05:49:21.773Z,20.05
2022-09-14T05:50:21.785Z,20.02
2022-09-14T05:51:21.783Z,20.03
2022-09-14T05:52:21.850Z,20.06
2022-09-14T05:53:21.875Z,20.06
2022-09-14T05:54:22.033Z,20.06
2022-09-14T05:55:22.001Z,19.95
2022-09-14T05:56:22.020Z,20.05
2022-09-14T05:57:22.063Z,20.03
2022-09-14T05:58:22.118Z,20.03
2022-09-14T05:59:22.193Z,20.09
2022-09-14T06:00:22.244Z,20.05
2022-09-14T06:01:22.377Z,20.02
2022-09-14T06:02:22.375Z,20.09
2022-09-14T06:03:22.405Z,20.08
2022-09-14T06:04:22.442Z,20.06
2022-09-14T06:05:22.567Z,20.13
2022-09-14T06:06:22.526Z,20.05
2022-09-14T06:07:22.578Z,20.16
2022-09-14T06:08:22.631Z,20.25
2022-09-14T06:09:22.679Z,20.21
2022-09-14T06:16:43.747Z,20.64
2022-09-14T06:17:37.695Z,20.61
2022-09-14T06:18:37.730Z,20.61
2022-09-14T06:19:37.812Z,20.61
2022-09-14T06:20:37.790Z,20.58
2022-09-14T06:21:37.857Z,20.66
2022-09-14T06:22:37.929Z,20.62
2022-09-14T06:23:37.952Z,20.61
2022-09-14T06:24:38.011Z,20.64
2022-09-14T06:25:38.050Z,20.68
2022-09-14T06:26:38.099Z,20.72
2022-09-14T06:27:38.174Z,20.77
2022-09-14T06:28:38.206Z,20.83
2022-09-14T06:29:38.264Z,20.77
2022-09-14T06:30:38.308Z,20.86
2022-09-14T06:31:38.416Z,20.93
2022-09-14T06:32:38.410Z,20.87
2022-09-14T06:33:38.460Z,20.95
2022-09-14T06:34:38.513Z,20.90
2022-09-14T06:35:38.567Z,20.93
2022-09-14T06:36:38.638Z,21.02
2022-09-14T06:37:38.664Z,20.96
2022-09-14T06:38:38.730Z,21.02
2022-09-14T06:39:38.802Z,20.99
2022-09-14T06:40:38.823Z,21.09
2022-09-14T06:41:38.872Z,21.13
2022-09-14T06:42:38.929Z,21.17
2022-09-14T06:43:38.992Z,21.13
2022-09-14T06:44:39.055Z,21.19
2022-09-14T06:45:39.081Z,21.23
2022-09-14T06:46:39.134Z,21.35
2022-09-14T06:47:39.206Z,21.30
2022-09-14T06:48:39.247Z,21.41
2022-09-14T06:49:39.288Z,21.42
2022-09-14T06:50:39.354Z,21.48
2022-09-14T06:51:39.416Z,21.44
2022-09-14T06:52:39.446Z,21.53
2022-09-14T06:53:39.541Z,21.56
2022-09-14T06:54:39.589Z,21.63
2022-09-14T06:55:39.603Z,21.63
2022-09-14T06:56:39.650Z,21.66
2022-09-14T06:57:42.893Z,21.63
2022-09-14T06:58:39.755Z,21.61
2022-09-14T06:59:39.832Z,21.59
2022-09-14T07:00:39.861Z,21.63
2022-09-14T07:01:39.911Z,21.59
2022-09-14T07:02:40.021Z,21.51
2022-09-14T07:03:40.027Z,21.51
2022-09-14T07:04:40.116Z,21.46
2022-09-14T07:05:40.150Z,21.46
2022-09-14T07:06:40.176Z,21.51
2022-09-14T07:07:40.249Z,21.54
2022-09-14T07:08:40.350Z,21.56
2022-09-14T07:09:40.328Z,21.56
2022-09-14T07:10:40.443Z,21.57
2022-09-14T07:11:40.432Z,21.61
2022-09-14T07:12:40.484Z,21.61
2022-09-14T07:13:40.533Z,21.60
2022-09-14T07:14:40.589Z,21.60
2022-09-14T07:15:40.668Z,21.69
2022-09-14T07:16:40.689Z,21.71
2022-09-14T07:17:40.770Z,21.82
2022-09-14T07:18:40.859Z,21.78
2022-09-14T07:19:40.850Z,21.76
2022-09-14T07:20:40.934Z,21.76
2022-09-14T07:21:40.962Z,21.76
2022-09-14T07:22:41.005Z,21.81
2022-09-14T07:23:41.134Z,21.81
2022-09-14T07:24:41.111Z,21.76
2022-09-14T07:25:41.227Z,21.78
2022-09-14T07:26:41.228Z,21.81
2022-09-14T07:27:41.293Z,21.85
2022-09-14T07:28:41.486Z,21.81
2022-09-14T07:29:41.520Z,21.94
2022-09-14T07:30:41.551Z,21.88
2022-09-14T07:31:41.668Z,21.82
2022-09-14T07:32:41.599Z,21.98
2022-09-14T07:33:41.628Z,21.95
2022-09-14T07:34:41.798Z,22.04
2022-09-14T07:35:41.827Z,22.09
2022-09-14T07:36:41.812Z,22.14
2022-09-14T07:37:42.095Z,22.22
2022-09-14T07:38:52.181Z,22.31
2022-09-14T07:39:42.106Z,22.28
2022-09-14T07:40:41.984Z,22.53
2022-09-14T07:41:42.057Z,22.65
2022-09-14T07:42:42.102Z,23.05
2022-09-14T07:43:42.761Z,23.12
2022-09-14T07:44:42.854Z,23.15
2022-09-14T07:45:42.304Z,23.40
2022-09-14T07:46:44.636Z,23.47
2022-09-14T07:47:42.450Z,23.82
2022-09-14T07:48:42.406Z,23.83
2022-09-14T07:49:42.429Z,24.01
2022-09-14T07:50:43.283Z,24.08
2022-09-14T07:51:43.242Z,24.22
2022-09-14T07:52:42.608Z,24.24
2022-09-14T07:53:42.669Z,24.50
2022-09-14T07:54:42.841Z,24.52
2022-09-14T07:55:42.797Z,24.22
2022-09-14T07:56:42.863Z,24.13
2022-09-14T07:57:55.629Z,24.07
2022-09-14T07:58:42.955Z,23.94
2022-09-14T07:59:42.981Z,23.98
2022-09-14T08:00:43.073Z,24.07
2022-09-14T08:01:43.184Z,24.14
2022-09-14T08:02:43.187Z,24.19
2022-09-14T08:03:43.228Z,24.19
2022-09-14T08:04:43.280Z,24.14
2022-09-14T08:05:43.353Z,24.14
2022-09-14T08:06:43.385Z,24.00
2022-09-14T08:07:43.518Z,24.05
2022-09-14T08:08:43.498Z,24.13
2022-09-14T08:09:43.566Z,24.23
2022-09-14T08:10:43.601Z,24.38
2022-09-14T08:11:43.652Z,24.52
2022-09-14T08:12:43.770Z,24.59
2022-09-14T08:13:43.747Z,24.68
2022-09-14T08:14:43.770Z,24.71
2022-09-14T08:15:43.853Z,24.80
2022-09-14T08:16:43.928Z,24.85
2022-09-14T08:17:43.960Z,24.79
2022-09-14T08:18:44.024Z,24.75
2022-09-14T08:19:44.042Z,24.69
2022-09-14T08:20:44.120Z,24.60
2022-09-14T08:21:46.825Z,24.49
2022-09-14T08:22:44.208Z,24.50
2022-09-14T08:23:44.265Z,24.45
2022-09-14T08:24:44.311Z,24.49
2022-09-14T08:25:44.401Z,24.50
2022-09-14T08:26:44.422Z,24.75
2022-09-14T08:27:44.475Z,24.90
2022-09-14T08:28:44.534Z,24.95
2022-09-14T08:29:44.587Z,24.80
2022-09-14T08:30:44.682Z,24.67
2022-09-14T08:31:44.757Z,24.57
2022-09-14T08:32:44.747Z,24.56
2022-09-14T08:33:44.811Z,24.52
2022-09-14T08:34:44.903Z,24.42
2022-09-14T08:35:57.413Z,24.49
2022-09-14T08:36:44.971Z,24.50
2022-09-14T08:37:45.023Z,24.53
2022-09-14T08:38:45.081Z,24.50
2022-09-14T08:39:49.584Z,24.52
2022-09-14T08:40:45.233Z,24.50
2022-09-14T08:41:45.279Z,24.60
2022-09-14T08:42:45.317Z,24.77
2022-09-14T08:43:45.372Z,24.88
2022-09-14T08:44:45.450Z,24.88
2022-09-14T08:45:45.524Z,25.05
2022-09-14T08:46:45.539Z,25.16
2022-09-14T08:47:45.613Z,25.12
2022-09-14T08:48:45.685Z,25.24
2022-09-14T08:49:45.712Z,25.24
2022-09-14T08:50:45.787Z,25.28
2022-09-14T08:51:45.811Z,25.20
2022-09-14T08:52:45.948Z,25.25
2022-09-14T08:53:45.933Z,25.39
2022-09-14T08:54:46.013Z,25.37
2022-09-14T08:55:46.010Z,25.43
2022-09-14T08:56:46.071Z,25.56
2022-09-14T08:57:46.151Z,25.64
2022-09-14T08:58:48.414Z,25.62
2022-09-14T08:59:46.283Z,25.62
2022-09-14T09:00:46.550Z,25.62
2022-09-14T09:01:46.392Z,25.62
2022-09-14T09:02:46.530Z,25.64
2022-09-14T09:03:46.554Z,25.71
2022-09-14T09:04:46.569Z,25.83
2022-09-14T09:05:46.580Z,25.82
2022-09-14T09:06:46.700Z,25.79
2022-09-14T09:07:46.737Z,25.68
2022-09-14T09:08:46.776Z,25.75
2022-09-14T09:09:46.843Z,25.65
2022-09-14T09:10:46.977Z,25.67
2022-09-14T09:11:46.962Z,25.62
2022-09-14T09:12:46.977Z,25.67
2022-09-14T09:13:47.035Z,25.69
2022-09-14T09:14:47.100Z,25.67
2022-09-14T09:15:47.241Z,25.84
2022-09-14T09:16:47.353Z,25.86
2022-09-14T09:17:47.277Z,25.82
2022-09-14T09:18:47.454Z,25.82
2022-09-14T09:19:47.378Z,25.82
2022-09-14T09:20:47.402Z,25.74
2022-09-14T09:21:47.580Z,25.84
2022-09-14T09:22:47.581Z,25.93
2022-09-14T09:23:47.713Z,25.91
2022-09-14T09:24:47.681Z,25.94
2022-09-14T09:25:47.674Z,25.98
2022-09-14T09:26:47.777Z,25.93
2022-09-14T09:27:47.835Z,25.89
2022-09-14T09:28:47.978Z,25.86
2022-09-14T09:29:47.905Z,25.94
2022-09-14T09:30:47.990Z,25.98
2022-09-14T09:31:48.061Z,26.04
2022-09-14T09:32:48.064Z,26.06
2022-09-14T09:33:48.151Z,26.11
2022-09-14T09:34:48.182Z,26.08
2022-09-14T09:35:48.236Z,26.06
2022-09-14T09:36:48.294Z,25.93
2022-09-14T09:37:48.351Z,25.98
2022-09-14T09:38:48.440Z,25.89
2022-09-14T09:39:48.485Z,25.97
2022-09-14T09:40:48.515Z,25.89
2022-09-14T09:41:48.603Z,25.91
2022-09-14T09:42:48.628Z,25.99
2022-09-14T09:43:49.826Z,25.89
2022-09-14T09:44:48.740Z,25.99
2022-09-14T09:45:48.801Z,25.91
2022-09-14T09:46:48.934Z,25.94
2022-09-14T09:47:48.917Z,25.94
2022-09-14T09:48:48.972Z,26.20
2022-09-14T09:49:49.024Z,26.24
2022-09-14T09:50:49.108Z,26.20
2022-09-14T09:51:49.131Z,26.17
2022-09-14T09:52:49.188Z,26.12
2022-09-14T09:53:49.247Z,26.29
2022-09-14T09:54:49.329Z,26.28
2022-09-14T09:55:49.387Z,26.42
2022-09-14T09:56:49.443Z,26.44
2022-09-14T09:57:49.469Z,26.43
2022-09-14T09:58:49.530Z,26.46
2022-09-14T09:59:49.580Z,26.61
2022-09-14T10:00:49.678Z,26.62
2022-09-14T10:01:49.768Z,26.77
2022-09-14T10:02:49.790Z,26.84
2022-09-14T10:03:49.828Z,26.91
2022-09-14T10:04:49.865Z,27.06
2022-09-14T10:05:49.926Z,27.24
2022-09-14T10:06:49.992Z,27.32
2022-09-14T10:07:50.058Z,27.51
2022-09-14T10:08:50.116Z,27.70
2022-09-14T10:09:50.149Z,27.71
2022-09-14T10:10:50.205Z,27.88
2022-09-14T10:11:50.263Z,27.95
2022-09-14T10:12:50.342Z,27.89
2022-09-14T10:13:50.381Z,27.92
2022-09-14T10:14:50.433Z,27.82
2022-09-14T10:15:50.553Z,27.84
2022-09-14T10:16:50.557Z,27.39
2022-09-14T10:17:50.624Z,27.24
2022-09-14T10:18:50.858Z,27.21
2022-09-14T10:19:50.722Z,27.09
2022-09-14T10:20:50.777Z,27.10
2022-09-14T10:21:50.830Z,27.04
2022-09-14T10:22:50.900Z,27.04
2022-09-14T10:23:51.056Z,26.98
2022-09-14T10:24:51.008Z,26.96
2022-09-14T10:25:51.063Z,27.19
2022-09-14T10:26:51.118Z,27.13
2022-09-14T10:27:51.179Z,27.06
2022-09-14T10:28:51.350Z,27.16
2022-09-14T10:29:51.292Z,27.26
2022-09-14T10:31:20.077Z,27.26
2022-09-14T10:31:51.416Z,27.28
2022-09-14T10:32:51.493Z,27.31
2022-09-14T10:33:51.605Z,27.23
2022-09-14T10:34:51.588Z,27.23
2022-09-14T10:35:51.636Z,27.21
2022-09-14T10:36:51.699Z,27.41
2022-09-14T10:37:51.772Z,27.48
2022-09-14T10:38:51.848Z,27.48
2022-09-14T10:39:51.919Z,27.54
2022-09-14T10:40:51.941Z,27.31
2022-09-14T10:41:51.980Z,27.28
2022-09-14T10:42:52.067Z,27.19
2022-09-14T10:43:52.097Z,27.09
2022-09-14T10:44:52.155Z,26.94
2022-09-14T10:45:52.243Z,26.89
2022-09-14T10:46:52.294Z,27.01
2022-09-14T10:47:52.324Z,27.11
2022-09-14T10:48:52.380Z,27.09
2022-09-14T10:49:52.436Z,27.19
2022-09-14T10:50:52.525Z,27.21
2022-09-14T10:51:52.552Z,27.05
2022-09-14T10:52:52.610Z,26.91
2022-09-14T10:53:52.665Z,26.83
2022-09-14T10:54:54.306Z,26.68
2022-09-14T10:55:52.806Z,26.58
2022-09-14T10:56:52.840Z,26.43
2022-09-14T10:57:52.914Z,26.24
2022-09-14T10:58:52.946Z,26.08
2022-09-14T10:59:53.033Z,26.08
2022-09-14T11:00:53.065Z,26.06
2022-09-14T11:01:53.306Z,26.01
2022-09-14T11:02:53.283Z,25.91
2022-09-14T11:03:53.275Z,25.90
2022-09-14T11:04:53.318Z,25.97
2022-09-14T11:05:53.350Z,25.83
2022-09-14T11:06:53.406Z,25.86
2022-09-14T11:07:53.463Z,25.80
2022-09-14T11:08:53.519Z,25.74
2022-09-14T11:09:53.600Z,25.68
2022-09-14T11:10:53.626Z,25.67
2022-09-14T11:11:53.688Z,25.54
2022-09-14T11:12:53.741Z,25.54
2022-09-14T11:13:53.793Z,25.42
2022-09-14T11:14:53.891Z,25.37
2022-09-14T11:15:53.912Z,25.30
2022-09-14T11:16:53.962Z,25.15
2022-09-14T11:17:54.016Z,25.20
2022-09-14T11:18:54.072Z,25.13
2022-09-14T11:19:54.153Z,25.05
2022-09-14T11:20:54.182Z,25.02
2022-09-14T11:21:54.269Z,24.98
2022-09-14T11:22:54.289Z,24.94
2022-09-14T11:23:54.353Z,24.92
2022-09-14T11:24:54.402Z,24.79
2022-09-14T11:25:54.461Z,24.73
2022-09-14T11:26:54.540Z,24.63
2022-09-14T11:27:54.568Z,24.63
2022-09-14T11:28:54.623Z,24.69
2022-09-14T11:29:54.678Z,24.59
2022-09-14T11:30:54.760Z,24.61
2022-09-14T11:32:16.801Z,24.50
2022-09-14T11:32:54.843Z,24.56
2022-09-14T11:33:54.895Z,24.53
2022-09-14T11:34:55.080Z,24.47
2022-09-14T11:35:54.999Z,24.37
2022-09-14T11:36:55.062Z,24.27
2022-09-14T11:37:55.112Z,24.27
2022-09-14T11:38:55.172Z,24.38
2022-09-14T11:39:55.275Z,24.24
2022-09-14T11:40:55.278Z,24.23
2022-09-14T11:41:55.340Z,24.22
2022-09-14T11:42:55.388Z,24.27
2022-09-14T11:43:55.438Z,24.24
2022-09-14T11:44:55.528Z,24.26
2022-09-14T11:45:55.581Z,24.13
2022-09-14T11:46:59.965Z,24.22
2022-09-14T11:47:55.661Z,24.19
2022-09-14T11:48:55.888Z,24.24
2022-09-14T11:49:55.764Z,24.24
2022-09-14T11:50:55.824Z,24.14
2022-09-14T11:51:55.897Z,24.32
2022-09-14T11:52:55.925Z,24.31
2022-09-14T11:53:56.022Z,24.34
2022-09-14T11:54:56.035Z,24.42
2022-09-14T11:55:56.088Z,24.50
2022-09-14T11:56:56.140Z,24.52
2022-09-14T11:57:56.199Z,24.67
2022-09-14T11:58:56.272Z,24.68
2022-09-14T11:59:56.304Z,24.69
2022-09-14T12:00:56.384Z,24.79
2022-09-14T12:01:56.417Z,24.79
2022-09-14T12:02:56.499Z,24.87
2022-09-14T12:03:56.573Z,24.91
2022-09-14T12:04:56.585Z,24.94
2022-09-14T12:05:56.641Z,24.98
2022-09-14T12:06:56.691Z,25.05
2022-09-14T12:07:56.740Z,25.12
2022-09-14T12:08:56.836Z,25.09
2022-09-14T12:09:56.856Z,25.16
2022-09-14T12:10:56.907Z,25.22
2022-09-14T12:11:56.960Z,25.25
2022-09-14T12:12:57.015Z,25.24
2022-09-14T12:13:57.096Z,25.20
2022-09-14T12:14:57.124Z,25.19
2022-09-14T12:15:57.226Z,25.16
2022-09-14T12:16:57.238Z,25.19
2022-09-14T12:17:57.311Z,25.16
2022-09-14T12:18:57.342Z,25.15
2022-09-14T12:19:57.405Z,25.17
2022-09-14T12:20:57.483Z,25.20
2022-09-14T12:21:57.501Z,25.13
2022-09-14T12:22:57.566Z,25.22
2022-09-14T12:24:18.639Z,25.20
2022-09-14T12:24:57.671Z,25.17
2022-09-14T12:25:57.774Z,25.16
2022-09-14T12:26:57.777Z,25.02
2022-09-14T12:27:57.833Z,25.02
2022-09-14T12:28:57.910Z,25.01
2022-09-14T12:29:57.942Z,25.02
2022-09-14T12:30:58.073Z,25.06
2022-09-14T12:31:58.053Z,24.91
2022-09-14T12:32:58.116Z,24.92
2022-09-14T12:33:58.157Z,24.82
2022-09-14T12:34:58.238Z,24.69
2022-09-14T12:35:58.264Z,24.76
2022-09-14T12:36:58.323Z,24.76
2022-09-14T12:37:58.376Z,24.73
2022-09-14T12:38:58.434Z,24.73
2022-09-14T12:39:58.552Z,24.59
2022-09-14T12:40:58.545Z,24.53
2022-09-14T12:41:58.602Z,24.45
2022-09-14T12:42:58.649Z,24.42
2022-09-14T12:43:58.706Z,24.41
2022-09-14T12:44:58.783Z,24.32
2022-09-14T12:45:58.853Z,24.19
2022-09-14T12:46:58.873Z,24.07
2022-09-14T12:47:58.922Z,23.97
2022-09-14T12:48:59.017Z,23.86
2022-09-14T12:49:59.048Z,23.94
2022-09-14T12:50:59.086Z,23.77
2022-09-14T12:51:59.154Z,23.70
2022-09-14T12:52:59.193Z,23.65
2022-09-14T12:53:59.240Z,23.60
2022-09-14T12:54:59.296Z,23.50
2022-09-14T12:55:59.367Z,23.52
2022-09-14T12:56:59.471Z,23.49
2022-09-14T12:57:59.458Z,23.45
2022-09-14T12:58:59.512Z,23.39